Time;durP1;ratioP1;P1;durP2;ratioP2;P2;SDS_P1;SDS_P2;PMS_P1;PMS_P2;Temp;Humidity;BMP_temperature;BMP_pressure;BME280_temperature;BME280_humidity;BME280_pressure;Samples;Min_cycle;Max_cycle;Signal;HPM_P1;HPM_P2
2020/12/27 06:30:58;;;;;;;11.07;5.40;;;-0.80;92.10;;;;;;5484911;23;20618;-82
2020/12/27 06:33:41;;;;;;;8.20;5.07;;;-0.70;91.20;;;;;;5021121;28;20027;-82
2020/12/27 07:02:07;;;;;;;12.67;6.63;;;-1.30;92.70;;;;;;5130877;23;20046;-78
2020/12/27 07:04:38;;;;;;;11.23;6.90;;;-1.20;92.80;;;;;;4980620;28;20073;-78
2020/12/27 07:07:05;;;;;;;12.13;7.27;;;-1.20;93.00;;;;;;4997283;28;20197;-78
2020/12/27 07:10:08;;;;;;;15.97;7.37;;;-1.20;92.80;;;;;;5003672;28;20073;-79
2020/12/27 07:46:43;;;;;;;9.85;4.90;;;-0.90;92.40;;;;;;5897844;23;20050;-79
2020/12/27 08:06:46;;;;;;;8.48;4.53;;;0.10;90.00;;;;;;5682798;23;20050;-80
2020/12/27 08:09:14;;;;;;;9.02;4.70;;;0.30;89.90;;;;;;4996680;28;20050;-78
2020/12/27 08:11:42;;;;;;;7.63;4.47;;;0.40;90.00;;;;;;4996927;28;20086;-78
2020/12/27 08:14:12;;;;;;;14.82;8.25;;;0.30;90.20;;;;;;4997954;28;20574;-78
2020/12/27 08:54:05;;;;;;;12.67;6.83;;;-0.50;91.50;;;;;;5014745;28;20089;-81
2020/12/27 09:00:34;;;;;;;16.70;10.97;;;-0.30;90.90;;;;;;5015229;28;20046;-81
2020/12/27 09:03:05;;;;;;;15.43;8.87;;;-0.20;91.10;;;;;;5031427;28;20085;-81
2020/12/27 09:05:36;;;;;;;10.13;5.80;;;-0.20;91.80;;;;;;5014075;28;20133;-81
2020/12/27 09:08:26;;;;;;;11.87;6.80;;;-0.20;90.30;;;;;;4996826;28;20059;-82
2020/12/27 09:15:25;;;;;;;10.90;5.77;;;-0.10;90.70;;;;;;4985062;28;20078;-82
2020/12/27 09:18:01;;;;;;;12.10;5.83;;;0.10;89.70;;;;;;4996989;28;20055;-79
2020/12/27 09:20:30;;;;;;;12.88;6.13;;;0.10;89.60;;;;;;4990381;28;20550;-81
2020/12/27 09:22:57;;;;;;;11.50;6.47;;;0.30;89.90;;;;;;4992916;28;20127;-80
2020/12/27 09:25:25;;;;;;;11.55;6.63;;;0.40;90.50;;;;;;5009472;28;20467;-80
2020/12/27 09:27:54;;;;;;;9.77;5.90;;;0.40;91.00;;;;;;5000861;28;20046;-79
2020/12/27 09:30:24;;;;;;;11.63;6.40;;;0.60;90.60;;;;;;4999094;28;20054;-78
2020/12/27 09:33:02;;;;;;;11.60;6.07;;;0.60;90.40;;;;;;4996830;28;20093;-80
2020/12/27 09:35:33;;;;;;;9.68;5.88;;;0.80;90.30;;;;;;5005859;28;20050;-80
2020/12/27 09:38:07;;;;;;;9.50;5.97;;;0.90;90.10;;;;;;4993652;28;20054;-80
2020/12/27 09:40:34;;;;;;;11.00;6.47;;;1.00;90.80;;;;;;5006837;28;20069;-81
2020/12/27 09:43:04;;;;;;;11.98;7.32;;;1.10;91.00;;;;;;5008444;28;20058;-80
2020/12/27 09:45:49;;;;;;;10.30;6.10;;;1.10;91.10;;;;;;5015425;28;20085;-81
2020/12/27 09:48:41;;;;;;;9.93;6.30;;;1.20;91.20;;;;;;5033085;28;20056;-81
2020/12/27 09:51:34;;;;;;;7.75;4.13;;;1.30;90.20;;;;;;5008377;28;20089;-81
2020/12/27 09:54:01;;;;;;;9.30;4.70;;;1.30;86.80;;;;;;5000828;28;20050;-81
2020/12/27 09:56:42;;;;;;;10.10;3.92;;;1.50;86.40;;;;;;5010768;28;20043;-80
2020/12/27 09:59:10;;;;;;;7.50;3.80;;;1.50;84.60;;;;;;4986656;28;20480;-80
2020/12/27 10:01:38;;;;;;;7.22;4.20;;;1.60;84.00;;;;;;5009070;28;20046;-80
2020/12/27 10:07:58;;;;;;;5.70;3.53;;;1.70;83.00;;;;;;4982199;28;20629;-80
2020/12/27 10:10:24;;;;;;;6.90;3.97;;;1.70;82.10;;;;;;4997365;28;20066;-80
2020/12/27 10:12:55;;;;;;;6.25;3.80;;;1.90;82.30;;;;;;5011391;28;20081;-80
2020/12/27 10:15:21;;;;;;;6.30;3.92;;;1.90;82.70;;;;;;5008943;28;20055;-80
2020/12/27 10:17:50;;;;;;;6.88;3.75;;;1.90;81.40;;;;;;5004117;28;20400;-80
2020/12/27 10:23:47;;;;;;;6.60;3.83;;;2.30;81.60;;;;;;4993590;28;20095;-81
2020/12/27 10:26:14;;;;;;;8.52;3.78;;;2.40;80.70;;;;;;4973288;28;20123;-80
2020/12/27 10:32:54;;;;;;;5.53;3.55;;;2.40;83.70;;;;;;5018530;28;20057;-81
2020/12/27 10:39:15;;;;;;;6.07;3.65;;;2.10;85.40;;;;;;5000602;28;20038;-81
2020/12/27 12:45:56;;;;;;;5.72;2.78;;;3.20;80.50;;;;;;5286300;23;20066;-83
2020/12/27 14:02:57;;;;;;;5.40;2.73;;;3.20;77.80;;;;;;5608711;23;20035;-81
2020/12/27 14:05:41;;;;;;;5.18;2.85;;;3.00;78.50;;;;;;5026916;28;20281;-84
2020/12/27 14:08:09;;;;;;;6.40;2.92;;;3.20;77.10;;;;;;5020158;28;20135;-82
2020/12/27 14:10:48;;;;;;;5.05;2.50;;;3.10;76.30;;;;;;5018303;28;20038;-81
2020/12/27 14:13:22;;;;;;;5.68;2.90;;;3.30;76.40;;;;;;5002248;28;20045;-82
2020/12/27 16:27:57;;;;;;;5.83;2.87;;;2.90;67.00;;;;;;5108475;23;20383;-84
2020/12/27 16:30:25;;;;;;;6.43;2.55;;;3.00;68.30;;;;;;4966026;28;20380;-84
2020/12/27 16:32:51;;;;;;;5.65;2.50;;;3.00;66.60;;;;;;4998933;28;20061;-82
2020/12/27 16:35:20;;;;;;;4.57;2.22;;;3.10;66.00;;;;;;5001239;28;20062;-86
2020/12/27 17:09:40;;;;;;;4.13;2.00;;;3.40;63.10;;;;;;4936361;29;20107;-83
2020/12/27 17:12:14;;;;;;;4.35;1.90;;;3.50;63.10;;;;;;4996647;28;20076;-84
2020/12/27 17:14:50;;;;;;;4.57;2.10;;;3.50;62.60;;;;;;5005691;28;20497;-84
2020/12/27 17:17:17;;;;;;;4.95;1.90;;;3.50;62.50;;;;;;5004762;28;20042;-84
2020/12/27 17:19:43;;;;;;;4.45;1.80;;;3.60;61.90;;;;;;4999694;28;20093;-84
2020/12/27 17:22:11;;;;;;;3.83;1.80;;;3.60;61.60;;;;;;5007136;28;20061;-85
2020/12/27 17:24:39;;;;;;;4.05;1.92;;;3.80;61.60;;;;;;5009997;28;20045;-86
2020/12/27 17:27:07;;;;;;;4.05;2.00;;;3.80;61.10;;;;;;5007497;28;20563;-84
2020/12/27 17:29:34;;;;;;;4.05;1.80;;;3.90;60.30;;;;;;4996768;28;20043;-88
2020/12/27 17:32:01;;;;;;;3.60;1.70;;;3.90;60.20;;;;;;4988946;28;20050;-88
2020/12/27 17:34:28;;;;;;;7.93;2.67;;;4.00;60.50;;;;;;4979508;28;20234;-84
2020/12/27 17:36:58;;;;;;;6.07;1.90;;;4.10;60.40;;;;;;4990222;28;20077;-83
2020/12/27 17:39:26;;;;;;;3.63;1.70;;;4.10;60.10;;;;;;4989365;28;20061;-88
2020/12/27 17:41:53;;;;;;;4.53;1.88;;;4.20;58.70;;;;;;4988838;28;20685;-89
2020/12/27 17:44:20;;;;;;;4.43;1.92;;;4.40;58.10;;;;;;4983717;28;20461;-87
2020/12/27 17:46:47;;;;;;;4.18;1.85;;;4.60;58.00;;;;;;4988118;28;20639;-87
2020/12/27 17:49:13;;;;;;;4.55;1.90;;;4.70;57.70;;;;;;4989630;28;20141;-88
2020/12/27 17:51:41;;;;;;;3.67;1.60;;;4.70;58.10;;;;;;4988874;28;20077;-85
2020/12/27 17:54:08;;;;;;;5.47;1.80;;;4.90;56.80;;;;;;4989401;28;20051;-88
2020/12/27 17:56:36;;;;;;;5.03;2.90;;;5.10;56.40;;;;;;4989196;28;20133;-88
2020/12/27 17:59:04;;;;;;;4.15;2.20;;;5.10;56.40;;;;;;4989207;28;20082;-77
2020/12/27 18:01:32;;;;;;;4.65;2.33;;;5.10;59.70;;;;;;4994994;28;20076;-81
2020/12/27 18:03:59;;;;;;;4.00;1.63;;;5.20;56.80;;;;;;4997980;28;20053;-87
2020/12/27 18:06:27;;;;;;;3.38;1.67;;;5.20;56.40;;;;;;5003537;28;20050;-87
2020/12/27 18:08:54;;;;;;;3.88;1.60;;;5.20;55.60;;;;;;4994868;28;20085;-87
2020/12/27 18:11:23;;;;;;;5.07;1.70;;;5.20;55.70;;;;;;5000793;28;20443;-87
2020/12/27 18:13:51;;;;;;;3.55;1.55;;;5.30;55.90;;;;;;4990216;28;20042;-87
2020/12/27 18:16:18;;;;;;;4.05;1.60;;;5.40;55.80;;;;;;4994108;28;20483;-88
2020/12/27 18:18:44;;;;;;;3.95;1.70;;;5.40;56.00;;;;;;5002298;28;20485;-85
2020/12/27 18:21:15;;;;;;;4.32;1.83;;;5.30;56.40;;;;;;5000478;28;20179;-87
2020/12/27 18:23:42;;;;;;;3.65;1.60;;;5.20;56.80;;;;;;5013440;28;20443;-87
2020/12/27 18:26:09;;;;;;;3.33;1.52;;;5.50;56.70;;;;;;5008695;28;20085;-87
2020/12/27 18:28:36;;;;;;;4.03;1.80;;;5.50;56.80;;;;;;4993162;28;20571;-88
2020/12/27 18:31:04;;;;;;;11.25;5.13;;;5.60;56.80;;;;;;4993647;28;20496;-87
2020/12/27 18:33:31;;;;;;;4.80;2.00;;;5.70;56.60;;;;;;4992859;28;20522;-87
2020/12/27 18:35:58;;;;;;;3.47;1.70;;;5.70;56.40;;;;;;4994110;28;20161;-87
2020/12/27 18:38:26;;;;;;;4.65;2.03;;;5.80;56.20;;;;;;4994233;28;20395;-88
2020/12/27 18:40:53;;;;;;;3.72;1.60;;;5.60;56.20;;;;;;4993277;28;20053;-88
2020/12/27 18:43:25;;;;;;;3.28;1.80;;;5.70;56.40;;;;;;4994214;28;20058;-87
2020/12/27 18:49:33;;;;;;;3.58;1.65;;;5.80;56.20;;;;;;4994380;28;20061;-88
2020/12/27 18:52:00;;;;;;;3.05;1.50;;;5.80;56.00;;;;;;4993660;28;20129;-88
2020/12/27 18:54:27;;;;;;;3.70;1.50;;;5.90;55.60;;;;;;4995277;28;20093;-87
2020/12/27 18:56:58;;;;;;;4.10;1.80;;;5.90;55.60;;;;;;4999915;28;20077;-88
2020/12/27 18:59:25;;;;;;;3.65;1.50;;;6.00;55.50;;;;;;5011366;28;20052;-88
2020/12/27 19:01:51;;;;;;;3.83;1.58;;;6.00;55.80;;;;;;4998757;28;20105;-88
2020/12/27 19:04:18;;;;;;;3.53;1.58;;;6.00;56.00;;;;;;5008700;28;20057;-87
2020/12/27 19:06:46;;;;;;;4.40;1.73;;;5.90;56.40;;;;;;4997414;28;20132;-88
2020/12/27 19:09:13;;;;;;;3.25;1.42;;;5.90;56.50;;;;;;5001683;28;20077;-87
2020/12/27 19:11:41;;;;;;;3.00;1.20;;;5.90;56.50;;;;;;4994782;28;20069;-89
2020/12/27 19:14:09;;;;;;;4.43;1.60;;;5.80;56.60;;;;;;5000464;28;20144;-88
2020/12/27 19:16:36;;;;;;;3.42;1.40;;;5.90;56.80;;;;;;5000503;28;20058;-86
2020/12/27 19:19:04;;;;;;;2.65;1.25;;;5.70;56.70;;;;;;4992522;28;20145;-88
2020/12/27 19:21:30;;;;;;;2.75;1.35;;;5.70;56.80;;;;;;5002720;28;20140;-83
2020/12/27 19:23:58;;;;;;;3.78;1.60;;;5.70;57.10;;;;;;5008838;28;20545;-85
2020/12/27 19:26:26;;;;;;;3.25;1.50;;;5.80;56.60;;;;;;4995033;28;20054;-89
2020/12/27 19:28:53;;;;;;;4.07;1.70;;;5.90;56.70;;;;;;5011966;28;20140;-90
2020/12/27 19:31:22;;;;;;;3.45;1.60;;;5.90;57.10;;;;;;5003225;28;20054;-90
2020/12/27 19:33:48;;;;;;;4.88;1.85;;;6.10;56.70;;;;;;4999297;28;20050;-92
2020/12/27 19:36:15;;;;;;;3.45;1.40;;;6.10;57.10;;;;;;5002089;28;20056;-92
2020/12/27 19:38:43;;;;;;;3.15;1.40;;;6.10;58.50;;;;;;4969960;28;20138;-89
2020/12/27 19:41:13;;;;;;;2.40;1.17;;;6.10;58.60;;;;;;4989092;28;20053;-91
2020/12/27 19:43:40;;;;;;;2.78;1.10;;;6.00;59.50;;;;;;4994631;28;20106;-92
2020/12/27 19:46:12;;;;;;;8.30;4.35;;;6.20;59.80;;;;;;4993205;28;20058;-93
2020/12/27 19:48:39;;;;;;;7.65;3.25;;;6.20;60.40;;;;;;4997668;28;20096;-92
2020/12/27 19:51:06;;;;;;;3.78;1.30;;;6.50;59.50;;;;;;5005898;28;20054;-93
2020/12/27 19:53:33;;;;;;;3.15;1.23;;;6.30;59.10;;;;;;4994068;28;20572;-94
2020/12/27 19:56:00;;;;;;;3.25;1.50;;;6.20;60.00;;;;;;4993866;28;20085;-96
2020/12/27 19:58:28;;;;;;;3.85;1.52;;;6.10;59.90;;;;;;4993467;28;20093;-95
2020/12/27 20:00:54;;;;;;;5.20;1.70;;;6.20;59.60;;;;;;4992688;28;20393;-89
2020/12/27 20:03:21;;;;;;;4.05;1.70;;;6.30;59.10;;;;;;4992391;28;20145;-88
2020/12/27 20:05:47;;;;;;;3.95;1.65;;;6.60;57.90;;;;;;4989226;28;20150;-89
2020/12/27 20:08:14;;;;;;;3.83;1.55;;;6.50;57.30;;;;;;4991402;28;20069;-89
2020/12/27 20:10:41;;;;;;;5.03;1.80;;;6.50;56.90;;;;;;4992090;28;20050;-89
2020/12/27 20:13:08;;;;;;;3.80;1.70;;;6.60;56.60;;;;;;4992933;28;20081;-90
2020/12/27 20:15:39;;;;;;;5.00;1.70;;;6.70;56.40;;;;;;4992067;28;20046;-89
2020/12/27 20:18:06;;;;;;;3.80;1.40;;;6.60;56.10;;;;;;4984470;28;20077;-92
2020/12/27 20:20:33;;;;;;;4.13;1.50;;;6.40;57.50;;;;;;4981697;28;20076;-89
2020/12/27 20:23:00;;;;;;;3.05;1.33;;;6.30;56.40;;;;;;4985164;28;20047;-88
2020/12/27 20:25:27;;;;;;;2.63;1.40;;;6.50;56.20;;;;;;4981975;28;20133;-89
2020/12/27 20:27:54;;;;;;;3.13;1.58;;;6.60;55.80;;;;;;4991723;28;20066;-91
2020/12/27 20:30:20;;;;;;;3.42;1.50;;;6.50;55.80;;;;;;4991490;28;20104;-91
2020/12/27 20:32:49;;;;;;;3.72;1.63;;;6.40;56.10;;;;;;4992499;28;20129;-91
2020/12/27 20:35:15;;;;;;;2.78;1.30;;;6.60;56.10;;;;;;4991686;28;20061;-88
2020/12/27 20:37:42;;;;;;;7.10;3.35;;;6.60;56.70;;;;;;4989606;28;20133;-90
2020/12/27 20:40:10;;;;;;;5.15;2.20;;;6.60;57.50;;;;;;4990509;28;20144;-87
2020/12/27 20:42:37;;;;;;;3.58;1.30;;;6.70;58.30;;;;;;4991695;28;20125;-86
2020/12/27 20:45:04;;;;;;;3.00;1.00;;;6.70;58.90;;;;;;4989332;28;20137;-86
2020/12/27 20:47:31;;;;;;;3.42;1.10;;;6.70;61.20;;;;;;4991348;28;20054;-89
2020/12/27 20:49:59;;;;;;;2.17;0.98;;;7.00;62.30;;;;;;4990422;28;20435;-85
2020/12/27 20:52:26;;;;;;;2.03;1.00;;;7.20;65.30;;;;;;4990578;28;20082;-86
2020/12/27 20:54:52;;;;;;;2.00;0.80;;;7.30;67.50;;;;;;4988895;28;20050;-90
2020/12/27 20:57:19;;;;;;;1.92;0.70;;;7.50;69.40;;;;;;4992328;28;20058;-92
2020/12/27 20:59:46;;;;;;;1.90;0.75;;;7.50;70.00;;;;;;4998585;28;20297;-89
2020/12/27 21:02:12;;;;;;;1.88;0.68;;;7.90;68.30;;;;;;4994551;28;20082;-88
2020/12/27 21:04:39;;;;;;;1.27;0.60;;;8.00;68.30;;;;;;4975868;28;20488;-87
2020/12/27 21:07:06;;;;;;;2.53;0.70;;;7.90;68.70;;;;;;4991853;28;20187;-89
2020/12/27 21:09:33;;;;;;;1.40;0.70;;;8.00;68.50;;;;;;4993041;28;20102;-89
2020/12/27 21:12:00;;;;;;;1.58;0.60;;;8.00;68.50;;;;;;4986043;28;20500;-87
2020/12/27 21:14:26;;;;;;;1.55;0.60;;;8.20;68.10;;;;;;4990944;28;20489;-91
2020/12/27 21:16:53;;;;;;;3.25;0.70;;;8.30;67.20;;;;;;4992341;28;20056;-90
2020/12/27 21:19:20;;;;;;;1.65;0.57;;;8.50;67.10;;;;;;4991298;28;20054;-92
2020/12/27 21:21:47;;;;;;;1.20;0.50;;;8.60;67.00;;;;;;5005334;28;20447;-88
2020/12/27 21:24:14;;;;;;;1.65;0.73;;;8.50;67.00;;;;;;4993253;28;20861;-90
2020/12/27 21:26:41;;;;;;;2.47;0.70;;;8.60;67.30;;;;;;4991175;28;20039;-87
2020/12/27 21:29:07;;;;;;;1.83;0.70;;;8.60;67.80;;;;;;4985937;28;20042;-90
2020/12/27 21:31:34;;;;;;;2.03;0.60;;;8.60;68.60;;;;;;4990995;28;20102;-89
2020/12/27 21:34:01;;;;;;;2.22;0.68;;;8.50;69.50;;;;;;4990753;28;20133;-89
2020/12/27 21:36:27;;;;;;;3.95;1.63;;;8.60;70.90;;;;;;4990427;28;20042;-89
2020/12/27 21:38:54;;;;;;;2.00;0.68;;;8.70;73.00;;;;;;4991402;28;20145;-91
2020/12/27 21:41:22;;;;;;;1.85;0.50;;;8.60;74.00;;;;;;4990448;28;20077;-90
2020/12/27 21:43:49;;;;;;;2.00;0.60;;;8.50;75.40;;;;;;4974420;28;20053;-86
2020/12/27 21:46:16;;;;;;;2.03;0.75;;;8.40;76.90;;;;;;4972242;28;20141;-94
2020/12/27 21:48:44;;;;;;;2.95;0.60;;;8.40;78.00;;;;;;4990191;28;20054;-90
2020/12/27 21:51:11;;;;;;;2.30;0.60;;;8.30;79.20;;;;;;4991548;28;20062;-94
2020/12/27 21:53:37;;;;;;;3.00;0.50;;;8.30;80.00;;;;;;4991508;28;20064;-91
2020/12/27 21:56:04;;;;;;;1.02;0.40;;;8.40;81.30;;;;;;4992939;28;20922;-87
2020/12/27 21:58:32;;;;;;;3.67;0.50;;;8.40;81.40;;;;;;4985471;28;20064;-91
2020/12/27 22:00:58;;;;;;;1.02;0.40;;;8.40;81.80;;;;;;4995839;28;20125;-92
2020/12/27 22:03:25;;;;;;;1.60;0.60;;;8.40;81.60;;;;;;4985340;28;20114;-93
2020/12/27 22:05:52;;;;;;;1.45;0.70;;;8.40;80.80;;;;;;4993997;28;20145;-90
2020/12/27 22:08:19;;;;;;;2.00;0.70;;;8.30;78.80;;;;;;5003934;28;20050;-90
2020/12/27 22:10:45;;;;;;;1.77;0.60;;;8.30;77.80;;;;;;5001123;28;20554;-89
2020/12/27 22:13:12;;;;;;;2.83;0.88;;;8.30;76.40;;;;;;4997476;28;20141;-89
2020/12/27 22:15:42;;;;;;;2.78;1.10;;;8.30;75.30;;;;;;4983045;28;20160;-92
2020/12/27 22:18:09;;;;;;;2.05;0.90;;;8.40;72.40;;;;;;5014484;28;20053;-89
2020/12/27 22:20:35;;;;;;;2.05;0.88;;;8.30;71.80;;;;;;5002777;28;20141;-88
2020/12/27 22:23:02;;;;;;;2.22;0.80;;;8.30;70.10;;;;;;5009339;28;20140;-89
2020/12/27 22:25:29;;;;;;;2.17;0.80;;;8.10;70.40;;;;;;5010734;28;20045;-90
2020/12/27 22:27:55;;;;;;;2.25;0.77;;;8.20;70.30;;;;;;4999734;28;20146;-92
2020/12/27 22:30:22;;;;;;;2.13;0.80;;;8.10;67.30;;;;;;5005665;28;20133;-91
2020/12/27 22:32:50;;;;;;;2.05;0.75;;;8.00;67.10;;;;;;5006462;28;20470;-91
2020/12/27 22:35:19;;;;;;;2.20;0.70;;;8.00;67.30;;;;;;4997343;28;20582;-91
2020/12/27 22:37:46;;;;;;;3.40;0.68;;;8.10;68.60;;;;;;5004853;28;20133;-92
2020/12/27 22:40:12;;;;;;;1.38;0.57;;;7.90;68.80;;;;;;4997021;28;20132;-89
2020/12/27 22:42:41;;;;;;;1.27;0.63;;;8.10;69.40;;;;;;5001631;28;20512;-92
2020/12/27 22:45:08;;;;;;;1.40;0.50;;;8.10;71.50;;;;;;5010046;28;20064;-92
2020/12/27 22:47:34;;;;;;;1.63;0.63;;;8.00;72.50;;;;;;4998095;28;20053;-91
2020/12/27 22:50:03;;;;;;;1.92;0.60;;;7.90;73.40;;;;;;5013329;28;20080;-91
2020/12/27 22:52:29;;;;;;;2.70;0.60;;;7.90;75.30;;;;;;5007410;28;20073;-91
2020/12/27 22:54:56;;;;;;;1.23;0.40;;;7.90;76.70;;;;;;5010543;28;20105;-91
2020/12/27 22:57:22;;;;;;;0.90;0.50;;;7.90;77.80;;;;;;4997508;28;20051;-91
2020/12/27 22:59:49;;;;;;;1.55;0.60;;;7.90;79.70;;;;;;4994162;28;20050;-91
2020/12/27 23:02:16;;;;;;;1.90;0.85;;;7.60;80.10;;;;;;5002800;28;20506;-91
2020/12/27 23:04:42;;;;;;;1.80;0.60;;;7.70;80.30;;;;;;5001424;28;20501;-92
2020/12/27 23:07:11;;;;;;;1.42;0.50;;;7.50;81.50;;;;;;5009013;28;20057;-92
2020/12/27 23:09:38;;;;;;;1.67;0.60;;;7.50;82.50;;;;;;5009796;28;20069;-92
2020/12/27 23:12:07;;;;;;;1.45;0.50;;;7.40;83.20;;;;;;5000958;28;20546;-91
2020/12/27 23:14:34;;;;;;;2.28;0.60;;;7.40;83.20;;;;;;4994523;28;20385;-89
2020/12/27 23:17:00;;;;;;;2.20;0.88;;;7.30;84.20;;;;;;4994917;28;20563;-91
2020/12/27 23:19:27;;;;;;;2.80;0.70;;;7.50;84.40;;;;;;5003902;28;20075;-90
2020/12/27 23:21:54;;;;;;;3.03;0.70;;;7.30;85.10;;;;;;4998844;28;20583;-90
2020/12/27 23:24:21;;;;;;;1.33;0.50;;;7.20;86.10;;;;;;4986890;28;20060;-92
2020/12/27 23:26:48;;;;;;;1.98;0.60;;;7.30;85.90;;;;;;5006065;28;20054;-90
2020/12/27 23:29:15;;;;;;;1.70;0.70;;;7.20;86.10;;;;;;4996487;28;20200;-88
2020/12/27 23:31:43;;;;;;;1.85;0.70;;;7.30;86.30;;;;;;4993986;28;20515;-91
2020/12/27 23:34:11;;;;;;;1.05;0.47;;;7.30;86.80;;;;;;5000825;28;20069;-89
2020/12/27 23:36:41;;;;;;;2.13;0.70;;;7.20;87.20;;;;;;4995132;28;20160;-90
2020/12/27 23:39:07;;;;;;;2.30;0.60;;;7.20;87.40;;;;;;5003440;28;20058;-89
2020/12/27 23:41:39;;;;;;;2.33;0.88;;;7.20;87.90;;;;;;5001720;28;20085;-90
2020/12/27 23:44:06;;;;;;;1.85;0.70;;;7.10;87.70;;;;;;4994806;28;20137;-92
2020/12/27 23:46:33;;;;;;;1.83;0.63;;;7.20;88.50;;;;;;5009509;28;20107;-89
2020/12/27 23:48:59;;;;;;;1.15;0.50;;;7.20;88.60;;;;;;4999405;28;20072;-91
2020/12/27 23:51:26;;;;;;;1.80;0.70;;;7.20;87.90;;;;;;5002366;28;20058;-89
2020/12/27 23:53:53;;;;;;;1.10;0.70;;;7.30;87.70;;;;;;5006078;28;20133;-90
2020/12/27 23:56:20;;;;;;;0.80;0.40;;;7.30;87.50;;;;;;5003824;28;20523;-91
2020/12/27 23:58:47;;;;;;;1.45;0.50;;;7.30;87.50;;;;;;5011978;28;20145;-90
